Terminal Aerodrome Forecast
Issued by NWS

Home | Current Version | Previous Version | Text Only | Print | Product List | Glossary On
Versions: 1 2 3 4 5 6 7 8 9 10 11 12 13 14 15 16 17 18 19 20 21 22 23 24 25
000
FTUS42 KJAX 221356 AAA
TAFVQQ
TAF AMD
KVQQ 221356Z 2214/2312 11004KT P6SM SCT020
      TEMPO 2214/2217 SCT010 BKN020
     FM221900 13008KT P6SM SCT040 SCT250
     FM230000 00000KT P6SM BKN200=

USA.gov is the U.S. government's official web portal to all federal, state and local government web resources and services.